sensor_id;sensor_type;location;lat;lon;timestamp;pressure;altitude;pressure_sealevel;temperature;humidity
59951;BME280;45812;53.540;9.774;2024-01-10T00:01:47;103568.34;;;-2.57;92.51
59951;BME280;45812;53.540;9.774;2024-01-10T00:04:13;103563.97;;;-2.54;92.68
59951;BME280;45812;53.540;9.774;2024-01-10T00:06:38;103559.59;;;-2.52;92.90
59951;BME280;45812;53.540;9.774;2024-01-10T00:09:04;103564.75;;;-2.46;92.63
59951;BME280;45812;53.540;9.774;2024-01-10T00:11:29;103562.09;;;-2.36;92.81
59951;BME280;45812;53.540;9.774;2024-01-10T00:13:54;103562.00;;;-2.26;93.30
59951;BME280;45812;53.540;9.774;2024-01-10T00:16:25;103555.81;;;-2.14;92.97
59951;BME280;45812;53.540;9.774;2024-01-10T00:18:50;103561.81;;;-2.03;93.16
59951;BME280;45812;53.540;9.774;2024-01-10T00:21:16;103565.16;;;-1.90;91.63
59951;BME280;45812;53.540;9.774;2024-01-10T00:23:41;103554.84;;;-2.02;87.43
59951;BME280;45812;53.540;9.774;2024-01-10T00:26:06;103553.28;;;-2.25;83.95
59951;BME280;45812;53.540;9.774;2024-01-10T00:28:31;103559.56;;;-2.47;83.41
59951;BME280;45812;53.540;9.774;2024-01-10T00:30:57;103560.53;;;-2.60;83.97
59951;BME280;45812;53.540;9.774;2024-01-10T00:33:22;103566.66;;;-2.67;83.15
59951;BME280;45812;53.540;9.774;2024-01-10T00:35:47;103556.31;;;-2.78;83.98
59951;BME280;45812;53.540;9.774;2024-01-10T00:38:13;103558.94;;;-2.83;83.80
59951;BME280;45812;53.540;9.774;2024-01-10T00:40:38;103563.28;;;-2.86;84.45
59951;BME280;45812;53.540;9.774;2024-01-10T00:43:04;103562.41;;;-2.84;85.34
59951;BME280;45812;53.540;9.774;2024-01-10T00:45:29;103562.38;;;-2.76;86.36
59951;BME280;45812;53.540;9.774;2024-01-10T00:47:55;103555.38;;;-2.68;86.07
59951;BME280;45812;53.540;9.774;2024-01-10T00:50:20;103557.94;;;-2.63;86.27
59951;BME280;45812;53.540;9.774;2024-01-10T00:52:45;103550.97;;;-2.57;86.43
59951;BME280;45812;53.540;9.774;2024-01-10T00:55:11;103556.09;;;-2.49;85.90
59951;BME280;45812;53.540;9.774;2024-01-10T00:57:36;103547.38;;;-2.47;86.24
59951;BME280;45812;53.540;9.774;2024-01-10T01:00:07;103551.69;;;-2.42;86.67
59951;BME280;45812;53.540;9.774;2024-01-10T01:02:32;103543.00;;;-2.38;87.14
59951;BME280;45812;53.540;9.774;2024-01-10T01:04:57;103548.19;;;-2.35;86.34
59951;BME280;45812;53.540;9.774;2024-01-10T01:07:23;103546.38;;;-2.29;86.20
59951;BME280;45812;53.540;9.774;2024-01-10T01:09:48;103536.78;;;-2.22;85.93
59951;BME280;45812;53.540;9.774;2024-01-10T01:12:13;103545.41;;;-2.17;85.97
59951;BME280;45812;53.540;9.774;2024-01-10T01:14:39;103547.16;;;-2.16;85.36
59951;BME280;45812;53.540;9.774;2024-01-10T01:17:04;103546.28;;;-2.17;85.65
59951;BME280;45812;53.540;9.774;2024-01-10T01:19:29;103542.81;;;-2.17;86.13
59951;BME280;45812;53.540;9.774;2024-01-10T01:21:54;103540.25;;;-2.22;85.87
59951;BME280;45812;53.540;9.774;2024-01-10T01:24:20;103538.53;;;-2.27;86.31
59951;BME280;45812;53.540;9.774;2024-01-10T01:26:45;103542.03;;;-2.28;86.40
59951;BME280;45812;53.540;9.774;2024-01-10T01:29:10;103544.72;;;-2.36;85.38
59951;BME280;45812;53.540;9.774;2024-01-10T01:31:35;103541.25;;;-2.39;85.79
59951;BME280;45812;53.540;9.774;2024-01-10T01:34:02;103540.44;;;-2.48;85.97
59951;BME280;45812;53.540;9.774;2024-01-10T01:36:27;103542.22;;;-2.51;86.99
59951;BME280;45812;53.540;9.774;2024-01-10T01:38:52;103535.28;;;-2.55;87.92
59951;BME280;45812;53.540;9.774;2024-01-10T01:41:17;103533.59;;;-2.58;89.08
59951;BME280;45812;53.540;9.774;2024-01-10T01:43:43;103537.06;;;-2.57;90.43
59951;BME280;45812;53.540;9.774;2024-01-10T01:46:09;103537.06;;;-2.59;90.98
59951;BME280;45812;53.540;9.774;2024-01-10T01:48:35;103537.09;;;-2.60;91.93
59951;BME280;45812;53.540;9.774;2024-01-10T01:51:04;103544.88;;;-2.62;92.62
59951;BME280;45812;53.540;9.774;2024-01-10T01:53:31;103541.41;;;-2.62;93.07
59951;BME280;45812;53.540;9.774;2024-01-10T01:55:57;103546.63;;;-2.59;93.53
59951;BME280;45812;53.540;9.774;2024-01-10T01:58:24;103550.06;;;-2.56;93.59
59951;BME280;45812;53.540;9.774;2024-01-10T02:00:49;103544.78;;;-2.47;94.36
59951;BME280;45812;53.540;9.774;2024-01-10T02:03:15;103545.63;;;-2.43;94.15
59951;BME280;45812;53.540;9.774;2024-01-10T02:05:40;103543.00;;;-2.38;94.15
59951;BME280;45812;53.540;9.774;2024-01-10T02:08:06;103545.53;;;-2.32;93.84
59951;BME280;45812;53.540;9.774;2024-01-10T02:10:31;103539.38;;;-2.25;93.74
59951;BME280;45812;53.540;9.774;2024-01-10T02:12:56;103536.75;;;-2.19;94.33
59951;BME280;45812;53.540;9.774;2024-01-10T02:15:22;103542.78;;;-2.14;94.24
59951;BME280;45812;53.540;9.774;2024-01-10T02:17:48;103542.72;;;-2.08;94.29
59951;BME280;45812;53.540;9.774;2024-01-10T02:20:14;103533.06;;;-2.00;94.02
59951;BME280;45812;53.540;9.774;2024-01-10T02:22:43;103538.25;;;-1.95;94.04
59951;BME280;45812;53.540;9.774;2024-01-10T02:25:12;103535.53;;;-1.88;93.65
59951;BME280;45812;53.540;9.774;2024-01-10T02:27:38;103531.16;;;-1.81;93.83
59951;BME280;45812;53.540;9.774;2024-01-10T02:30:05;103531.94;;;-1.76;93.73
59951;BME280;45812;53.540;9.774;2024-01-10T02:32:31;103536.22;;;-1.69;93.48
59951;BME280;45812;53.540;9.774;2024-01-10T02:34:56;103535.31;;;-1.63;93.59
59951;BME280;45812;53.540;9.774;2024-01-10T02:37:22;103534.34;;;-1.56;93.41
59951;BME280;45812;53.540;9.774;2024-01-10T02:39:47;103532.50;;;-1.49;93.13
59951;BME280;45812;53.540;9.774;2024-01-10T02:42:12;103533.38;;;-1.46;92.49
59951;BME280;45812;53.540;9.774;2024-01-10T02:44:38;103529.84;;;-1.43;92.78
59951;BME280;45812;53.540;9.774;2024-01-10T02:47:03;103534.13;;;-1.38;93.39
59951;BME280;45812;53.540;9.774;2024-01-10T02:49:29;103525.31;;;-1.32;92.67
59951;BME280;45812;53.540;9.774;2024-01-10T02:51:54;103529.66;;;-1.28;92.51
59951;BME280;45812;53.540;9.774;2024-01-10T02:54:19;103535.69;;;-1.25;92.30
59951;BME280;45812;53.540;9.774;2024-01-10T02:56:45;103528.69;;;-1.21;92.22
59951;BME280;45812;53.540;9.774;2024-01-10T02:59:10;103528.63;;;-1.18;91.50
59951;BME280;45812;53.540;9.774;2024-01-10T03:01:35;103532.97;;;-1.17;91.41
59951;BME280;45812;53.540;9.774;2024-01-10T03:04:00;103539.03;;;-1.13;91.44
59951;BME280;45812;53.540;9.774;2024-01-10T03:06:26;103531.16;;;-1.10;91.89
59951;BME280;45812;53.540;9.774;2024-01-10T03:08:51;103534.59;;;-1.07;92.00
59951;BME280;45812;53.540;9.774;2024-01-10T03:11:16;103539.75;;;-1.02;91.75
59951;BME280;45812;53.540;9.774;2024-01-10T03:13:44;103548.47;;;-1.02;91.81
59951;BME280;45812;53.540;9.774;2024-01-10T03:16:10;103545.81;;;-0.99;92.23
59951;BME280;45812;53.540;9.774;2024-01-10T03:18:36;103540.59;;;-1.00;91.62
59951;BME280;45812;53.540;9.774;2024-01-10T03:21:01;103530.97;;;-0.98;91.65
59951;BME280;45812;53.540;9.774;2024-01-10T03:23:26;103532.69;;;-0.97;91.76
59951;BME280;45812;53.540;9.774;2024-01-10T03:25:52;103530.94;;;-0.95;91.09
59951;BME280;45812;53.540;9.774;2024-01-10T03:28:17;103524.81;;;-0.93;91.81
59951;BME280;45812;53.540;9.774;2024-01-10T03:30:43;103531.78;;;-0.92;91.25
59951;BME280;45812;53.540;9.774;2024-01-10T03:33:08;103518.72;;;-0.92;91.42
59951;BME280;45812;53.540;9.774;2024-01-10T03:35:34;103508.25;;;-0.93;91.32
59951;BME280;45812;53.540;9.774;2024-01-10T03:37:59;103504.75;;;-0.90;90.79
59951;BME280;45812;53.540;9.774;2024-01-10T03:40:24;103507.38;;;-0.92;91.23
59951;BME280;45812;53.540;9.774;2024-01-10T03:42:49;103497.81;;;-0.95;91.62
59951;BME280;45812;53.540;9.774;2024-01-10T03:45:16;103499.53;;;-0.92;92.06
59951;BME280;45812;53.540;9.774;2024-01-10T03:47:43;103500.38;;;-0.90;92.08
59951;BME280;45812;53.540;9.774;2024-01-10T03:50:09;103498.66;;;-0.91;92.51
59951;BME280;45812;53.540;9.774;2024-01-10T03:52:34;103500.41;;;-0.93;92.02
59951;BME280;45812;53.540;9.774;2024-01-10T03:55:00;103500.41;;;-0.92;92.09
59951;BME280;45812;53.540;9.774;2024-01-10T03:57:25;103506.50;;;-0.91;92.81
59951;BME280;45812;53.540;9.774;2024-01-10T03:59:50;103496.84;;;-0.87;91.59
59951;BME280;45812;53.540;9.774;2024-01-10T04:02:16;103495.19;;;-0.95;91.60
59951;BME280;45812;53.540;9.774;2024-01-10T04:04:41;103500.47;;;-0.98;92.32
59951;BME280;45812;53.540;9.774;2024-01-10T04:07:06;103498.78;;;-1.02;91.99
59951;BME280;45812;53.540;9.774;2024-01-10T04:09:32;103497.09;;;-1.04;92.24
59951;BME280;45812;53.540;9.774;2024-01-10T04:11:57;103494.41;;;-1.00;92.69
59951;BME280;45812;53.540;9.774;2024-01-10T04:14:22;103506.59;;;-0.99;92.35
59951;BME280;45812;53.540;9.774;2024-01-10T04:16:47;103501.34;;;-0.97;92.76
59951;BME280;45812;53.540;9.774;2024-01-10T04:19:13;103501.31;;;-0.96;92.54
59951;BME280;45812;53.540;9.774;2024-01-10T04:21:38;103499.56;;;-0.95;92.64
59951;BME280;45812;53.540;9.774;2024-01-10T04:24:04;103495.34;;;-1.04;92.68
59951;BME280;45812;53.540;9.774;2024-01-10T04:26:29;103491.88;;;-1.06;93.33
59951;BME280;45812;53.540;9.774;2024-01-10T04:28:55;103491.03;;;-1.06;93.66
59951;BME280;45812;53.540;9.774;2024-01-10T04:31:20;103500.59;;;-1.05;93.30
59951;BME280;45812;53.540;9.774;2024-01-10T04:33:45;103510.19;;;-1.06;92.82
59951;BME280;45812;53.540;9.774;2024-01-10T04:36:10;103515.38;;;-1.04;92.71
59951;BME280;45812;53.540;9.774;2024-01-10T04:38:36;103502.31;;;-1.04;93.14
59951;BME280;45812;53.540;9.774;2024-01-10T04:41:01;103502.28;;;-1.01;92.81
59951;BME280;45812;53.540;9.774;2024-01-10T04:43:26;103499.63;;;-1.00;92.76
59951;BME280;45812;53.540;9.774;2024-01-10T04:45:51;103502.22;;;-0.98;93.10
59951;BME280;45812;53.540;9.774;2024-01-10T04:48:17;103500.44;;;-0.96;93.40
59951;BME280;45812;53.540;9.774;2024-01-10T04:50:42;103496.06;;;-0.93;93.71
59951;BME280;45812;53.540;9.774;2024-01-10T04:53:07;103493.41;;;-0.89;93.44
59951;BME280;45812;53.540;9.774;2024-01-10T04:55:33;103486.38;;;-0.86;93.33
59951;BME280;45812;53.540;9.774;2024-01-10T04:57:58;103494.16;;;-0.83;93.17
59951;BME280;45812;53.540;9.774;2024-01-10T05:00:24;103495.00;;;-0.81;93.19
59951;BME280;45812;53.540;9.774;2024-01-10T05:02:50;103485.44;;;-0.83;93.22
59951;BME280;45812;53.540;9.774;2024-01-10T05:05:15;103482.03;;;-0.87;93.53
59951;BME280;45812;53.540;9.774;2024-01-10T05:07:41;103475.84;;;-0.83;93.55
59951;BME280;45812;53.540;9.774;2024-01-10T05:10:06;103476.63;;;-0.78;93.95
59951;BME280;45812;53.540;9.774;2024-01-10T05:12:32;103473.94;;;-0.72;93.70
59951;BME280;45812;53.540;9.774;2024-01-10T05:14:57;103472.25;;;-0.74;94.09
59951;BME280;45812;53.540;9.774;2024-01-10T05:17:22;103475.63;;;-0.68;94.20
59951;BME280;45812;53.540;9.774;2024-01-10T05:19:49;103474.69;;;-0.65;94.19
59951;BME280;45812;53.540;9.774;2024-01-10T05:22:14;103471.16;;;-0.63;94.68
59951;BME280;45812;53.540;9.774;2024-01-10T05:24:39;103470.22;;;-0.58;94.80
59951;BME280;45812;53.540;9.774;2024-01-10T05:27:04;103471.03;;;-0.53;94.53
59951;BME280;45812;53.540;9.774;2024-01-10T05:29:30;103469.28;;;-0.53;94.24
59951;BME280;45812;53.540;9.774;2024-01-10T05:31:55;103464.03;;;-0.53;94.00
59951;BME280;45812;53.540;9.774;2024-01-10T05:34:20;103464.09;;;-0.57;93.71
59951;BME280;45812;53.540;9.774;2024-01-10T05:36:45;103458.88;;;-0.57;93.83
59951;BME280;45812;53.540;9.774;2024-01-10T05:39:11;103469.34;;;-0.59;94.84
59951;BME280;45812;53.540;9.774;2024-01-10T05:41:37;103472.81;;;-0.55;95.39
59951;BME280;45812;53.540;9.774;2024-01-10T05:44:04;103475.38;;;-0.52;93.76
59951;BME280;45812;53.540;9.774;2024-01-10T05:46:30;103471.84;;;-0.51;94.15
59951;BME280;45812;53.540;9.774;2024-01-10T05:48:56;103473.56;;;-0.49;93.57
59951;BME280;45812;53.540;9.774;2024-01-10T05:51:21;103478.78;;;-0.49;94.02
59951;BME280;45812;53.540;9.774;2024-01-10T05:53:46;103475.34;;;-0.51;92.77
59951;BME280;45812;53.540;9.774;2024-01-10T05:56:12;103483.16;;;-0.49;93.12
59951;BME280;45812;53.540;9.774;2024-01-10T05:58:37;103483.06;;;-0.45;93.48
59951;BME280;45812;53.540;9.774;2024-01-10T06:01:02;103474.25;;;-0.39;93.52
59951;BME280;45812;53.540;9.774;2024-01-10T06:03:28;103473.31;;;-0.34;93.03
59951;BME280;45812;53.540;9.774;2024-01-10T06:05:53;103470.69;;;-0.34;92.63
59951;BME280;45812;53.540;9.774;2024-01-10T06:08:19;103475.88;;;-0.32;92.45
59951;BME280;45812;53.540;9.774;2024-01-10T06:10:45;103480.34;;;-0.37;91.18
59951;BME280;45812;53.540;9.774;2024-01-10T06:13:10;103472.56;;;-0.43;91.24
59951;BME280;45812;53.540;9.774;2024-01-10T06:15:35;103469.06;;;-0.42;91.70
59951;BME280;45812;53.540;9.774;2024-01-10T06:18:01;103471.66;;;-0.41;91.18
59951;BME280;45812;53.540;9.774;2024-01-10T06:20:26;103475.09;;;-0.39;92.45
59951;BME280;45812;53.540;9.774;2024-01-10T06:22:51;103466.38;;;-0.38;92.10
59951;BME280;45812;53.540;9.774;2024-01-10T06:25:16;103470.66;;;-0.32;92.55
59951;BME280;45812;53.540;9.774;2024-01-10T06:27:42;103478.41;;;-0.27;92.91
59951;BME280;45812;53.540;9.774;2024-01-10T06:30:07;103473.13;;;-0.24;92.74
59951;BME280;45812;53.540;9.774;2024-01-10T06:32:34;103467.91;;;-0.26;91.79
59951;BME280;45812;53.540;9.774;2024-01-10T06:35:00;103471.38;;;-0.24;91.94
59951;BME280;45812;53.540;9.774;2024-01-10T06:37:27;103474.88;;;-0.25;90.82
59951;BME280;45812;53.540;9.774;2024-01-10T06:39:52;103469.66;;;-0.26;90.23
59951;BME280;45812;53.540;9.774;2024-01-10T06:42:17;103465.28;;;-0.26;90.39
59951;BME280;45812;53.540;9.774;2024-01-10T06:44:43;103462.69;;;-0.26;90.33
59951;BME280;45812;53.540;9.774;2024-01-10T06:47:08;103467.78;;;-0.20;90.48
59951;BME280;45812;53.540;9.774;2024-01-10T06:49:34;103482.56;;;-0.16;90.09
59951;BME280;45812;53.540;9.774;2024-01-10T06:51:59;103480.78;;;-0.14;90.16
59951;BME280;45812;53.540;9.774;2024-01-10T06:54:25;103480.78;;;-0.14;89.73
59951;BME280;45812;53.540;9.774;2024-01-10T06:56:50;103482.53;;;-0.14;89.03
59951;BME280;45812;53.540;9.774;2024-01-10T06:59:16;103482.50;;;-0.13;89.13
59951;BME280;45812;53.540;9.774;2024-01-10T07:01:41;103484.34;;;-0.16;89.32
59951;BME280;45812;53.540;9.774;2024-01-10T07:04:06;103473.03;;;-0.18;89.56
59951;BME280;45812;53.540;9.774;2024-01-10T07:06:31;103475.66;;;-0.18;89.63
59951;BME280;45812;53.540;9.774;2024-01-10T07:08:57;103480.00;;;-0.17;89.63
59951;BME280;45812;53.540;9.774;2024-01-10T07:11:38;103482.50;;;-0.13;90.10
59951;BME280;45812;53.540;9.774;2024-01-10T07:14:05;103480.72;;;-0.11;89.16
59951;BME280;45812;53.540;9.774;2024-01-10T07:16:30;103479.94;;;-0.14;89.37
59951;BME280;45812;53.540;9.774;2024-01-10T07:18:55;103478.19;;;-0.14;88.90
59951;BME280;45812;53.540;9.774;2024-01-10T07:21:20;103482.47;;;-0.10;89.44
59951;BME280;45812;53.540;9.774;2024-01-10T07:23:46;103479.81;;;-0.08;88.91
59951;BME280;45812;53.540;9.774;2024-01-10T07:26:13;103477.19;;;-0.08;88.73
59951;BME280;45812;53.540;9.774;2024-01-10T07:28:39;103477.22;;;-0.10;87.76
59951;BME280;45812;53.540;9.774;2024-01-10T07:31:04;103474.66;;;-0.13;87.66
59951;BME280;45812;53.540;9.774;2024-01-10T07:33:30;103473.81;;;-0.13;87.80
59951;BME280;45812;53.540;9.774;2024-01-10T07:35:58;103483.34;;;-0.11;87.57
59951;BME280;45812;53.540;9.774;2024-01-10T07:38:23;103478.06;;;-0.08;88.01
59951;BME280;45812;53.540;9.774;2024-01-10T07:40:48;103473.66;;;-0.06;88.01
59951;BME280;45812;53.540;9.774;2024-01-10T07:43:13;103484.94;;;-0.04;86.94
59951;BME280;45812;53.540;9.774;2024-01-10T07:45:39;103482.34;;;-0.04;87.39
59951;BME280;45812;53.540;9.774;2024-01-10T07:48:04;103479.69;;;-0.02;87.55
59951;BME280;45812;53.540;9.774;2024-01-10T07:50:30;103483.13;;;0.02;86.83
59951;BME280;45812;53.540;9.774;2024-01-10T07:52:55;103484.81;;;0.04;87.24
59951;BME280;45812;53.540;9.774;2024-01-10T07:55:21;103491.75;;;0.07;86.68
59951;BME280;45812;53.540;9.774;2024-01-10T07:57:46;103487.31;;;0.10;86.65
59951;BME280;45812;53.540;9.774;2024-01-10T08:00:12;103493.41;;;0.11;85.64
59951;BME280;45812;53.540;9.774;2024-01-10T08:02:38;103494.31;;;0.10;85.88
59951;BME280;45812;53.540;9.774;2024-01-10T08:05:04;103493.41;;;0.11;85.65
59951;BME280;45812;53.540;9.774;2024-01-10T08:10:57;103488.94;;;0.16;85.51
59951;BME280;45812;53.540;9.774;2024-01-10T08:13:22;103481.09;;;0.16;85.08
59951;BME280;45812;53.540;9.774;2024-01-10T08:15:47;103493.25;;;0.18;84.59
59951;BME280;45812;53.540;9.774;2024-01-10T08:18:12;103492.41;;;0.19;85.18
59951;BME280;45812;53.540;9.774;2024-01-10T08:20:39;103496.69;;;0.22;84.96
59951;BME280;45812;53.540;9.774;2024-01-10T08:23:04;103490.53;;;0.24;85.03
59951;BME280;45812;53.540;9.774;2024-01-10T08:25:29;103489.53;;;0.30;84.85
59951;BME280;45812;53.540;9.774;2024-01-10T08:27:54;103495.53;;;0.35;84.59
59951;BME280;45812;53.540;9.774;2024-01-10T08:30:22;103499.88;;;0.36;84.39
59951;BME280;45812;53.540;9.774;2024-01-10T08:32:47;103492.88;;;0.37;83.47
59951;BME280;45812;53.540;9.774;2024-01-10T08:35:12;103495.53;;;0.35;84.09
59951;BME280;45812;53.540;9.774;2024-01-10T08:37:38;103490.28;;;0.38;84.53
59951;BME280;45812;53.540;9.774;2024-01-10T08:40:06;103490.13;;;0.44;84.40
59951;BME280;45812;53.540;9.774;2024-01-10T08:42:35;103486.63;;;0.45;84.04
59951;BME280;45812;53.540;9.774;2024-01-10T08:45:00;103489.13;;;0.50;84.43
59951;BME280;45812;53.540;9.774;2024-01-10T08:47:25;103488.16;;;0.54;84.29
59951;BME280;45812;53.540;9.774;2024-01-10T08:49:50;103495.97;;;0.58;84.12
59951;BME280;45812;53.540;9.774;2024-01-10T08:52:16;103496.78;;;0.60;83.51
59951;BME280;45812;53.540;9.774;2024-01-10T08:54:41;103493.34;;;0.58;83.71
59951;BME280;45812;53.540;9.774;2024-01-10T08:57:06;103488.00;;;0.63;83.41
59951;BME280;45812;53.540;9.774;2024-01-10T08:59:31;103486.13;;;0.68;82.87
59951;BME280;45812;53.540;9.774;2024-01-10T09:01:57;103487.75;;;0.75;82.86
59951;BME280;45812;53.540;9.774;2024-01-10T09:04:22;103478.88;;;0.81;83.17
59951;BME280;45812;53.540;9.774;2024-01-10T09:06:47;103473.50;;;0.85;82.63
59951;BME280;45812;53.540;9.774;2024-01-10T09:09:13;103481.34;;;0.87;81.93
59951;BME280;45812;53.540;9.774;2024-01-10T09:11:38;103475.13;;;0.91;81.77
59951;BME280;45812;53.540;9.774;2024-01-10T09:14:04;103481.06;;;0.99;82.26
59951;BME280;45812;53.540;9.774;2024-01-10T09:16:29;103472.22;;;1.03;81.45
59951;BME280;45812;53.540;9.774;2024-01-10T09:18:54;103469.53;;;1.06;81.01
59951;BME280;45812;53.540;9.774;2024-01-10T09:21:22;103466.00;;;1.07;80.83
59951;BME280;45812;53.540;9.774;2024-01-10T09:23:47;103459.72;;;1.14;81.06
59951;BME280;45812;53.540;9.774;2024-01-10T09:26:16;103458.69;;;1.21;81.01
59951;BME280;45812;53.540;9.774;2024-01-10T09:28:41;103464.75;;;1.24;80.09
59951;BME280;45812;53.540;9.774;2024-01-10T09:31:07;103457.09;;;1.14;79.63
59951;BME280;45812;53.540;9.774;2024-01-10T09:33:32;103447.59;;;1.09;79.76
59951;BME280;45812;53.540;9.774;2024-01-10T09:35:57;103457.19;;;1.10;79.67
59951;BME280;45812;53.540;9.774;2024-01-10T09:38:22;103460.69;;;1.10;79.52
59951;BME280;45812;53.540;9.774;2024-01-10T09:40:48;103464.78;;;1.22;81.02
59951;BME280;45812;53.540;9.774;2024-01-10T09:43:13;103467.16;;;1.33;80.44
59951;BME280;45812;53.540;9.774;2024-01-10T09:45:43;103468.97;;;1.31;79.49
59951;BME280;45812;53.540;9.774;2024-01-10T09:48:13;103469.75;;;1.34;78.30
59951;BME280;45812;53.540;9.774;2024-01-10T09:50:38;103460.84;;;1.40;77.36
59951;BME280;45812;53.540;9.774;2024-01-10T09:53:07;103464.13;;;1.48;77.15
59951;BME280;45812;53.540;9.774;2024-01-10T09:55:37;103462.31;;;1.51;76.17
59951;BME280;45812;53.540;9.774;2024-01-10T09:58:04;103458.91;;;1.46;75.93
59951;BME280;45812;53.540;9.774;2024-01-10T10:00:30;103459.91;;;1.42;76.43
59951;BME280;45812;53.540;9.774;2024-01-10T10:02:57;103451.00;;;1.48;77.00
59951;BME280;45812;53.540;9.774;2024-01-10T10:05:24;103456.16;;;1.52;76.18
59951;BME280;45812;53.540;9.774;2024-01-10T10:07:51;103452.97;;;1.40;76.45
59951;BME280;45812;53.540;9.774;2024-01-10T10:10:17;103458.47;;;1.29;75.30
59951;BME280;45812;53.540;9.774;2024-01-10T10:12:49;103450.38;;;1.38;76.88
59951;BME280;45812;53.540;9.774;2024-01-10T10:15:21;103452.50;;;1.58;76.87
59951;BME280;45812;53.540;9.774;2024-01-10T10:17:47;103445.06;;;1.75;75.58
59951;BME280;45812;53.540;9.774;2024-01-10T10:20:28;103448.00;;;1.96;75.07
59951;BME280;45812;53.540;9.774;2024-01-10T10:22:58;103438.31;;;1.98;74.55
59951;BME280;45812;53.540;9.774;2024-01-10T10:25:26;103436.81;;;1.89;73.52
59951;BME280;45812;53.540;9.774;2024-01-10T10:27:52;103437.63;;;1.91;74.04
59951;BME280;45812;53.540;9.774;2024-01-10T10:30:17;103438.16;;;2.02;73.89
59951;BME280;45812;53.540;9.774;2024-01-10T10:32:43;103441.09;;;2.23;73.63
59951;BME280;45812;53.540;9.774;2024-01-10T10:35:08;103445.91;;;2.38;73.04
59951;BME280;45812;53.540;9.774;2024-01-10T10:37:34;103441.25;;;2.48;72.28
59951;BME280;45812;53.540;9.774;2024-01-10T10:39:59;103448.19;;;2.50;71.56
59951;BME280;45812;53.540;9.774;2024-01-10T10:42:26;103452.94;;;2.67;72.03
59951;BME280;45812;53.540;9.774;2024-01-10T10:44:55;103454.56;;;2.71;70.45
59951;BME280;45812;53.540;9.774;2024-01-10T10:47:23;103449.19;;;2.74;69.96
59951;BME280;45812;53.540;9.774;2024-01-10T10:49:53;103444.97;;;2.96;69.66
59951;BME280;45812;53.540;9.774;2024-01-10T10:52:20;103454.63;;;3.24;69.89
59951;BME280;45812;53.540;9.774;2024-01-10T10:54:47;103455.44;;;3.52;67.88
59951;BME280;45812;53.540;9.774;2024-01-10T10:57:13;103449.47;;;3.97;66.35
59951;BME280;45812;53.540;9.774;2024-01-10T10:59:41;103446.41;;;4.33;66.38
59951;BME280;45812;53.540;9.774;2024-01-10T11:02:09;103452.06;;;4.69;64.67
59951;BME280;45812;53.540;9.774;2024-01-10T11:04:34;103450.78;;;5.01;63.45
59951;BME280;45812;53.540;9.774;2024-01-10T11:07:00;103457.47;;;5.31;61.67
59951;BME280;45812;53.540;9.774;2024-01-10T11:09:25;103456.47;;;5.34;60.34
59951;BME280;45812;53.540;9.774;2024-01-10T11:12:10;103452.59;;;5.42;59.79
59951;BME280;45812;53.540;9.774;2024-01-10T11:15:04;103452.06;;;5.55;59.03
59951;BME280;45812;53.540;9.774;2024-01-10T11:20:13;103439.78;;;5.54;58.10
59951;BME280;45812;53.540;9.774;2024-01-10T11:23:15;103441.13;;;5.64;57.79
59951;BME280;45812;53.540;9.774;2024-01-10T11:25:45;103444.53;;;5.66;57.23
59951;BME280;45812;53.540;9.774;2024-01-10T11:28:12;103445.84;;;5.56;56.90
59951;BME280;45812;53.540;9.774;2024-01-10T11:30:48;103440.31;;;5.41;56.44
59951;BME280;45812;53.540;9.774;2024-01-10T11:33:24;103442.09;;;5.41;56.42
59951;BME280;45812;53.540;9.774;2024-01-10T11:36:11;103436.25;;;5.33;55.87
59951;BME280;45812;53.540;9.774;2024-01-10T11:41:41;103430.81;;;5.78;55.75
59951;BME280;45812;53.540;9.774;2024-01-10T11:46:46;103429.06;;;6.55;53.63
59951;BME280;45812;53.540;9.774;2024-01-10T11:49:14;103429.56;;;6.99;52.19
59951;BME280;45812;53.540;9.774;2024-01-10T11:51:44;103420.97;;;7.48;50.64
59951;BME280;45812;53.540;9.774;2024-01-10T11:54:11;103420.28;;;7.95;49.04
59951;BME280;45812;53.540;9.774;2024-01-10T11:56:41;103416.63;;;8.46;47.71
59951;BME280;45812;53.540;9.774;2024-01-10T11:59:10;103419.69;;;9.01;46.47
59951;BME280;45812;53.540;9.774;2024-01-10T12:01:40;103422.34;;;9.61;45.67
59951;BME280;45812;53.540;9.774;2024-01-10T12:04:06;103418.53;;;10.24;44.25
59951;BME280;45812;53.540;9.774;2024-01-10T12:06:34;103415.44;;;10.85;43.04
59951;BME280;45812;53.540;9.774;2024-01-10T12:09:00;103422.41;;;11.40;40.46
59951;BME280;45812;53.540;9.774;2024-01-10T12:11:28;103413.19;;;11.84;38.96
59951;BME280;45812;53.540;9.774;2024-01-10T12:13:53;103418.50;;;12.22;38.07
59951;BME280;45812;53.540;9.774;2024-01-10T12:16:19;103413.22;;;12.46;36.77
59951;BME280;45812;53.540;9.774;2024-01-10T12:18:44;103414.22;;;12.69;36.28
59951;BME280;45812;53.540;9.774;2024-01-10T12:21:09;103413.25;;;12.94;35.55
59951;BME280;45812;53.540;9.774;2024-01-10T12:23:36;103408.09;;;13.15;35.34
59951;BME280;45812;53.540;9.774;2024-01-10T12:26:02;103403.09;;;13.34;34.51
59951;BME280;45812;53.540;9.774;2024-01-10T12:28:29;103402.41;;;13.43;33.89
59951;BME280;45812;53.540;9.774;2024-01-10T12:30:55;103396.84;;;13.57;33.81
59951;BME280;45812;53.540;9.774;2024-01-10T12:33:23;103391.84;;;13.64;33.21
59951;BME280;45812;53.540;9.774;2024-01-10T12:36:10;103398.66;;;13.68;33.15
59951;BME280;45812;53.540;9.774;2024-01-10T12:38:36;103393.59;;;13.76;32.96
59951;BME280;45812;53.540;9.774;2024-01-10T12:41:03;103382.00;;;13.87;32.65
59951;BME280;45812;53.540;9.774;2024-01-10T12:43:29;103377.28;;;14.02;32.84
59951;BME280;45812;53.540;9.774;2024-01-10T12:46:05;103373.97;;;14.20;32.62
59951;BME280;45812;53.540;9.774;2024-01-10T12:48:30;103378.44;;;14.31;32.45
59951;BME280;45812;53.540;9.774;2024-01-10T12:50:57;103383.31;;;14.37;31.92
59951;BME280;45812;53.540;9.774;2024-01-10T12:53:25;103375.75;;;14.31;32.48
59951;BME280;45812;53.540;9.774;2024-01-10T12:55:50;103379.41;;;14.30;32.64
59951;BME280;45812;53.540;9.774;2024-01-10T12:58:16;103375.75;;;14.31;32.22
59951;BME280;45812;53.540;9.774;2024-01-10T13:00:41;103377.25;;;14.35;32.28